sensor_id;sensor_type;location;lat;lon;timestamp;temperature;humidity
3416;DHT22;1721;51.238;9.562;2022-07-30T00:01:59;19.20;98.60
3416;DHT22;1721;51.238;9.562;2022-07-30T00:04:25;19.20;98.60
3416;DHT22;1721;51.238;9.562;2022-07-30T00:06:51;19.20;98.50
3416;DHT22;1721;51.238;9.562;2022-07-30T00:09:16;19.20;98.50
3416;DHT22;1721;51.238;9.562;2022-07-30T00:11:42;19.10;98.40
3416;DHT22;1721;51.238;9.562;2022-07-30T00:14:08;19.10;98.50
3416;DHT22;1721;51.238;9.562;2022-07-30T00:16:34;19.10;98.50
3416;DHT22;1721;51.238;9.562;2022-07-30T00:18:59;19.00;98.60
3416;DHT22;1721;51.238;9.562;2022-07-30T00:21:25;19.00;98.60
3416;DHT22;1721;51.238;9.562;2022-07-30T00:23:51;19.10;98.60
3416;DHT22;1721;51.238;9.562;2022-07-30T00:26:16;19.10;98.50
3416;DHT22;1721;51.238;9.562;2022-07-30T00:28:42;19.10;98.50
3416;DHT22;1721;51.238;9.562;2022-07-30T00:31:08;19.10;98.60
3416;DHT22;1721;51.238;9.562;2022-07-30T00:33:33;19.10;98.60
3416;DHT22;1721;51.238;9.562;2022-07-30T00:36:00;19.00;98.70
3416;DHT22;1721;51.238;9.562;2022-07-30T00:38:26;19.00;98.80
3416;DHT22;1721;51.238;9.562;2022-07-30T00:40:52;19.20;98.60
3416;DHT22;1721;51.238;9.562;2022-07-30T00:43:19;19.00;98.60
3416;DHT22;1721;51.238;9.562;2022-07-30T00:45:45;18.90;98.80
3416;DHT22;1721;51.238;9.562;2022-07-30T00:48:11;18.90;98.70
3416;DHT22;1721;51.238;9.562;2022-07-30T00:50:37;19.00;98.80
3416;DHT22;1721;51.238;9.562;2022-07-30T00:53:03;18.90;98.80
3416;DHT22;1721;51.238;9.562;2022-07-30T00:55:29;18.90;98.70
3416;DHT22;1721;51.238;9.562;2022-07-30T00:57:55;19.00;98.70
3416;DHT22;1721;51.238;9.562;2022-07-30T01:00:20;19.10;98.50
3416;DHT22;1721;51.238;9.562;2022-07-30T01:02:46;18.90;98.90
3416;DHT22;1721;51.238;9.562;2022-07-30T01:05:12;18.70;98.80
3416;DHT22;1721;51.238;9.562;2022-07-30T01:07:38;18.80;99.10
3416;DHT22;1721;51.238;9.562;2022-07-30T01:10:05;18.90;98.90
3416;DHT22;1721;51.238;9.562;2022-07-30T01:12:31;18.90;98.80
3416;DHT22;1721;51.238;9.562;2022-07-30T01:14:58;18.90;98.60
3416;DHT22;1721;51.238;9.562;2022-07-30T01:17:25;18.80;98.70
3416;DHT22;1721;51.238;9.562;2022-07-30T01:19:53;18.80;98.70
3416;DHT22;1721;51.238;9.562;2022-07-30T01:25:11;18.90;98.70
3416;DHT22;1721;51.238;9.562;2022-07-30T01:27:58;18.90;98.50
3416;DHT22;1721;51.238;9.562;2022-07-30T01:30:27;18.90;98.40
3416;DHT22;1721;51.238;9.562;2022-07-30T01:32:54;18.90;98.30
3416;DHT22;1721;51.238;9.562;2022-07-30T01:35:22;19.00;98.30
3416;DHT22;1721;51.238;9.562;2022-07-30T01:37:50;18.90;98.20
3416;DHT22;1721;51.238;9.562;2022-07-30T01:40:16;18.90;98.20
3416;DHT22;1721;51.238;9.562;2022-07-30T01:42:43;18.90;98.30
3416;DHT22;1721;51.238;9.562;2022-07-30T01:45:10;18.90;98.30
3416;DHT22;1721;51.238;9.562;2022-07-30T01:47:38;18.90;98.40
3416;DHT22;1721;51.238;9.562;2022-07-30T01:50:08;18.90;98.40
3416;DHT22;1721;51.238;9.562;2022-07-30T01:52:39;18.80;98.50
3416;DHT22;1721;51.238;9.562;2022-07-30T01:55:07;18.80;98.50
3416;DHT22;1721;51.238;9.562;2022-07-30T01:57:34;18.70;98.80
3416;DHT22;1721;51.238;9.562;2022-07-30T02:00:03;18.50;99.00
3416;DHT22;1721;51.238;9.562;2022-07-30T02:02:29;18.70;99.00
3416;DHT22;1721;51.238;9.562;2022-07-30T02:04:55;18.80;98.80
3416;DHT22;1721;51.238;9.562;2022-07-30T02:07:34;18.80;98.70
3416;DHT22;1721;51.238;9.562;2022-07-30T02:10:05;18.80;98.80
3416;DHT22;1721;51.238;9.562;2022-07-30T02:12:33;18.80;98.80
3416;DHT22;1721;51.238;9.562;2022-07-30T02:17:54;18.90;98.90
3416;DHT22;1721;51.238;9.562;2022-07-30T02:20:23;18.90;99.10
3416;DHT22;1721;51.238;9.562;2022-07-30T02:22:56;19.00;98.80
3416;DHT22;1721;51.238;9.562;2022-07-30T02:25:22;19.00;98.70
3416;DHT22;1721;51.238;9.562;2022-07-30T02:27:57;19.00;98.70
3416;DHT22;1721;51.238;9.562;2022-07-30T02:30:26;19.10;98.70
3416;DHT22;1721;51.238;9.562;2022-07-30T02:32:57;19.10;98.60
3416;DHT22;1721;51.238;9.562;2022-07-30T02:35:24;18.90;98.80
3416;DHT22;1721;51.238;9.562;2022-07-30T02:37:53;18.90;98.90
3416;DHT22;1721;51.238;9.562;2022-07-30T02:40:20;19.00;98.80
3416;DHT22;1721;51.238;9.562;2022-07-30T02:42:49;19.10;98.60
3416;DHT22;1721;51.238;9.562;2022-07-30T02:45:16;19.00;98.70
3416;DHT22;1721;51.238;9.562;2022-07-30T02:47:44;19.00;98.80
3416;DHT22;1721;51.238;9.562;2022-07-30T02:50:11;19.00;99.00
3416;DHT22;1721;51.238;9.562;2022-07-30T02:52:39;19.10;98.70
3416;DHT22;1721;51.238;9.562;2022-07-30T02:55:08;19.00;98.80
3416;DHT22;1721;51.238;9.562;2022-07-30T02:57:35;19.00;98.90
3416;DHT22;1721;51.238;9.562;2022-07-30T03:00:03;19.00;98.80
3416;DHT22;1721;51.238;9.562;2022-07-30T03:02:31;19.10;98.70
3416;DHT22;1721;51.238;9.562;2022-07-30T03:04:59;19.10;98.60
3416;DHT22;1721;51.238;9.562;2022-07-30T03:07:26;19.10;98.60
3416;DHT22;1721;51.238;9.562;2022-07-30T03:09:54;19.10;98.60
3416;DHT22;1721;51.238;9.562;2022-07-30T03:12:20;19.10;98.50
3416;DHT22;1721;51.238;9.562;2022-07-30T03:14:46;19.10;98.60
3416;DHT22;1721;51.238;9.562;2022-07-30T03:17:14;19.10;98.60
3416;DHT22;1721;51.238;9.562;2022-07-30T03:19:40;19.10;98.50
3416;DHT22;1721;51.238;9.562;2022-07-30T03:22:08;19.00;98.50
3416;DHT22;1721;51.238;9.562;2022-07-30T03:24:35;18.70;98.80
3416;DHT22;1721;51.238;9.562;2022-07-30T03:27:03;18.80;99.00
3416;DHT22;1721;51.238;9.562;2022-07-30T03:29:30;18.90;98.80
3416;DHT22;1721;51.238;9.562;2022-07-30T03:31:57;18.90;98.70
3416;DHT22;1721;51.238;9.562;2022-07-30T03:34:24;18.90;98.60
3416;DHT22;1721;51.238;9.562;2022-07-30T03:36:50;18.90;98.50
3416;DHT22;1721;51.238;9.562;2022-07-30T03:39:17;18.90;98.80
3416;DHT22;1721;51.238;9.562;2022-07-30T03:41:43;18.90;98.70
3416;DHT22;1721;51.238;9.562;2022-07-30T03:44:09;19.00;98.70
3416;DHT22;1721;51.238;9.562;2022-07-30T03:46:36;19.00;98.60
3416;DHT22;1721;51.238;9.562;2022-07-30T03:49:02;19.00;98.60
3416;DHT22;1721;51.238;9.562;2022-07-30T03:51:28;19.10;98.50
3416;DHT22;1721;51.238;9.562;2022-07-30T03:53:54;19.00;98.40
3416;DHT22;1721;51.238;9.562;2022-07-30T03:56:20;19.00;98.50
3416;DHT22;1721;51.238;9.562;2022-07-30T03:58:46;18.90;98.80
3416;DHT22;1721;51.238;9.562;2022-07-30T04:01:12;18.60;99.00
3416;DHT22;1721;51.238;9.562;2022-07-30T04:03:38;18.60;99.20
3416;DHT22;1721;51.238;9.562;2022-07-30T04:06:03;18.50;99.50
3416;DHT22;1721;51.238;9.562;2022-07-30T04:08:29;18.70;99.40
3416;DHT22;1721;51.238;9.562;2022-07-30T04:10:55;18.70;99.10
3416;DHT22;1721;51.238;9.562;2022-07-30T04:13:21;18.80;99.00
3416;DHT22;1721;51.238;9.562;2022-07-30T04:16:11;18.80;98.90
3416;DHT22;1721;51.238;9.562;2022-07-30T04:18:41;18.80;99.30
3416;DHT22;1721;51.238;9.562;2022-07-30T04:21:09;18.90;99.20
3416;DHT22;1721;51.238;9.562;2022-07-30T04:23:38;18.90;99.00
3416;DHT22;1721;51.238;9.562;2022-07-30T04:26:04;19.00;99.00
3416;DHT22;1721;51.238;9.562;2022-07-30T04:28:29;19.00;98.90
3416;DHT22;1721;51.238;9.562;2022-07-30T04:30:55;19.00;98.80
3416;DHT22;1721;51.238;9.562;2022-07-30T04:33:21;18.90;99.10
3416;DHT22;1721;51.238;9.562;2022-07-30T04:35:46;18.70;99.40
3416;DHT22;1721;51.238;9.562;2022-07-30T04:38:12;18.80;99.50
3416;DHT22;1721;51.238;9.562;2022-07-30T04:40:39;18.90;99.30
3416;DHT22;1721;51.238;9.562;2022-07-30T04:43:05;19.00;99.10
3416;DHT22;1721;51.238;9.562;2022-07-30T04:45:31;19.10;99.00
3416;DHT22;1721;51.238;9.562;2022-07-30T04:47:57;19.10;98.90
3416;DHT22;1721;51.238;9.562;2022-07-30T04:50:25;19.00;99.10
3416;DHT22;1721;51.238;9.562;2022-07-30T04:52:53;18.90;99.30
3416;DHT22;1721;51.238;9.562;2022-07-30T04:55:20;18.90;99.40
3416;DHT22;1721;51.238;9.562;2022-07-30T04:57:49;19.00;99.10
3416;DHT22;1721;51.238;9.562;2022-07-30T05:00:16;19.20;99.10
3416;DHT22;1721;51.238;9.562;2022-07-30T05:02:42;19.20;99.00
3416;DHT22;1721;51.238;9.562;2022-07-30T05:05:10;19.20;99.10
3416;DHT22;1721;51.238;9.562;2022-07-30T05:07:37;19.30;99.10
3416;DHT22;1721;51.238;9.562;2022-07-30T05:10:05;19.20;99.00
3416;DHT22;1721;51.238;9.562;2022-07-30T05:12:35;19.20;99.10
3416;DHT22;1721;51.238;9.562;2022-07-30T05:15:08;19.30;99.00
3416;DHT22;1721;51.238;9.562;2022-07-30T05:17:35;19.40;98.90
3416;DHT22;1721;51.238;9.562;2022-07-30T05:20:00;19.30;99.00
3416;DHT22;1721;51.238;9.562;2022-07-30T05:22:26;19.10;99.20
3416;DHT22;1721;51.238;9.562;2022-07-30T05:24:57;19.20;99.40
3416;DHT22;1721;51.238;9.562;2022-07-30T05:27:23;19.30;99.10
3416;DHT22;1721;51.238;9.562;2022-07-30T05:29:49;19.40;98.90
3416;DHT22;1721;51.238;9.562;2022-07-30T05:32:14;19.50;98.80
3416;DHT22;1721;51.238;9.562;2022-07-30T05:34:40;19.60;98.80
3416;DHT22;1721;51.238;9.562;2022-07-30T05:37:05;19.60;98.70
3416;DHT22;1721;51.238;9.562;2022-07-30T05:39:31;19.60;98.60
3416;DHT22;1721;51.238;9.562;2022-07-30T05:41:56;19.70;98.50
3416;DHT22;1721;51.238;9.562;2022-07-30T05:44:22;19.70;98.50
3416;DHT22;1721;51.238;9.562;2022-07-30T05:46:48;19.60;98.60
3416;DHT22;1721;51.238;9.562;2022-07-30T05:49:13;19.60;98.80
3416;DHT22;1721;51.238;9.562;2022-07-30T05:51:40;19.60;98.70
3416;DHT22;1721;51.238;9.562;2022-07-30T05:54:06;19.60;98.80
3416;DHT22;1721;51.238;9.562;2022-07-30T05:56:31;19.60;98.70
3416;DHT22;1721;51.238;9.562;2022-07-30T05:58:57;19.60;98.70
3416;DHT22;1721;51.238;9.562;2022-07-30T06:01:22;19.70;98.50
3416;DHT22;1721;51.238;9.562;2022-07-30T06:03:48;19.80;98.60
3416;DHT22;1721;51.238;9.562;2022-07-30T06:06:13;19.90;98.30
3416;DHT22;1721;51.238;9.562;2022-07-30T06:08:39;19.90;98.20
3416;DHT22;1721;51.238;9.562;2022-07-30T06:11:04;19.90;98.30
3416;DHT22;1721;51.238;9.562;2022-07-30T06:13:30;19.80;98.30
3416;DHT22;1721;51.238;9.562;2022-07-30T06:15:55;19.90;98.40
3416;DHT22;1721;51.238;9.562;2022-07-30T06:18:21;19.90;98.30
3416;DHT22;1721;51.238;9.562;2022-07-30T06:20:46;19.90;98.40
3416;DHT22;1721;51.238;9.562;2022-07-30T06:23:15;19.90;98.40
3416;DHT22;1721;51.238;9.562;2022-07-30T06:25:41;19.80;98.30
3416;DHT22;1721;51.238;9.562;2022-07-30T06:28:06;19.60;98.60
3416;DHT22;1721;51.238;9.562;2022-07-30T06:30:32;19.70;98.30
3416;DHT22;1721;51.238;9.562;2022-07-30T06:32:57;19.70;98.20
3416;DHT22;1721;51.238;9.562;2022-07-30T06:35:23;19.80;98.30
3416;DHT22;1721;51.238;9.562;2022-07-30T06:37:48;19.90;98.20
3416;DHT22;1721;51.238;9.562;2022-07-30T06:40:14;19.90;98.00
3416;DHT22;1721;51.238;9.562;2022-07-30T06:42:40;19.90;98.00
3416;DHT22;1721;51.238;9.562;2022-07-30T06:45:06;19.90;98.00
3416;DHT22;1721;51.238;9.562;2022-07-30T06:47:32;20.00;98.00
3416;DHT22;1721;51.238;9.562;2022-07-30T06:50:00;20.10;98.00
3416;DHT22;1721;51.238;9.562;2022-07-30T06:52:26;20.20;98.00
3416;DHT22;1721;51.238;9.562;2022-07-30T06:54:51;20.00;97.90
3416;DHT22;1721;51.238;9.562;2022-07-30T06:57:17;19.80;98.20
3416;DHT22;1721;51.238;9.562;2022-07-30T06:59:43;19.90;98.40
3416;DHT22;1721;51.238;9.562;2022-07-30T07:02:09;20.00;98.20
3416;DHT22;1721;51.238;9.562;2022-07-30T07:04:35;20.10;98.20
3416;DHT22;1721;51.238;9.562;2022-07-30T07:07:00;20.20;98.30
3416;DHT22;1721;51.238;9.562;2022-07-30T07:09:26;20.30;98.00
3416;DHT22;1721;51.238;9.562;2022-07-30T07:11:51;20.00;98.10
3416;DHT22;1721;51.238;9.562;2022-07-30T07:14:17;20.20;98.30
3416;DHT22;1721;51.238;9.562;2022-07-30T07:16:42;20.20;98.10
3416;DHT22;1721;51.238;9.562;2022-07-30T07:19:08;20.20;98.10
3416;DHT22;1721;51.238;9.562;2022-07-30T07:21:34;20.20;98.20
3416;DHT22;1721;51.238;9.562;2022-07-30T07:23:59;20.10;98.30
3416;DHT22;1721;51.238;9.562;2022-07-30T07:26:27;20.10;98.40
3416;DHT22;1721;51.238;9.562;2022-07-30T07:28:53;20.10;98.50
3416;DHT22;1721;51.238;9.562;2022-07-30T07:31:18;20.20;98.50
3416;DHT22;1721;51.238;9.562;2022-07-30T07:33:44;20.20;98.40
3416;DHT22;1721;51.238;9.562;2022-07-30T07:36:11;20.20;98.50
3416;DHT22;1721;51.238;9.562;2022-07-30T07:38:36;20.10;98.70
3416;DHT22;1721;51.238;9.562;2022-07-30T07:41:02;20.00;99.00
3416;DHT22;1721;51.238;9.562;2022-07-30T07:43:29;20.30;98.90
3416;DHT22;1721;51.238;9.562;2022-07-30T07:45:55;20.50;98.60
3416;DHT22;1721;51.238;9.562;2022-07-30T07:48:21;20.70;98.30
3416;DHT22;1721;51.238;9.562;2022-07-30T07:50:46;20.90;98.10
3416;DHT22;1721;51.238;9.562;2022-07-30T07:53:12;21.00;98.30
3416;DHT22;1721;51.238;9.562;2022-07-30T07:55:38;21.20;98.10
3416;DHT22;1721;51.238;9.562;2022-07-30T07:58:03;21.20;98.00
3416;DHT22;1721;51.238;9.562;2022-07-30T08:00:29;21.10;97.70
3416;DHT22;1721;51.238;9.562;2022-07-30T08:02:55;21.00;97.80
3416;DHT22;1721;51.238;9.562;2022-07-30T08:05:20;21.20;97.90
3416;DHT22;1721;51.238;9.562;2022-07-30T08:07:46;21.60;97.50
3416;DHT22;1721;51.238;9.562;2022-07-30T08:10:12;21.80;97.10
3416;DHT22;1721;51.238;9.562;2022-07-30T08:12:39;21.90;96.50
3416;DHT22;1721;51.238;9.562;2022-07-30T08:15:05;21.80;95.50
3416;DHT22;1721;51.238;9.562;2022-07-30T08:17:31;21.50;96.00
3416;DHT22;1721;51.238;9.562;2022-07-30T08:19:58;21.50;96.50
3416;DHT22;1721;51.238;9.562;2022-07-30T08:22:24;21.50;96.80
3416;DHT22;1721;51.238;9.562;2022-07-30T08:24:50;21.60;96.60
3416;DHT22;1721;51.238;9.562;2022-07-30T08:27:16;21.70;97.80
3416;DHT22;1721;51.238;9.562;2022-07-30T08:29:42;22.00;97.50
3416;DHT22;1721;51.238;9.562;2022-07-30T08:32:07;22.50;95.80
3416;DHT22;1721;51.238;9.562;2022-07-30T08:34:33;22.70;95.40
3416;DHT22;1721;51.238;9.562;2022-07-30T08:36:59;23.00;94.70
3416;DHT22;1721;51.238;9.562;2022-07-30T08:39:24;23.10;94.60
3416;DHT22;1721;51.238;9.562;2022-07-30T08:41:50;23.20;94.30
3416;DHT22;1721;51.238;9.562;2022-07-30T08:44:17;23.70;93.10
3416;DHT22;1721;51.238;9.562;2022-07-30T08:46:45;23.60;95.20
3416;DHT22;1721;51.238;9.562;2022-07-30T08:49:11;23.50;94.90
3416;DHT22;1721;51.238;9.562;2022-07-30T08:51:37;23.40;95.40
3416;DHT22;1721;51.238;9.562;2022-07-30T08:54:04;23.40;95.10
3416;DHT22;1721;51.238;9.562;2022-07-30T08:56:31;23.30;95.10
3416;DHT22;1721;51.238;9.562;2022-07-30T08:58:58;23.60;95.30
3416;DHT22;1721;51.238;9.562;2022-07-30T09:01:24;23.10;94.70
3416;DHT22;1721;51.238;9.562;2022-07-30T09:03:50;23.10;95.10
3416;DHT22;1721;51.238;9.562;2022-07-30T09:06:15;23.40;95.40
3416;DHT22;1721;51.238;9.562;2022-07-30T09:08:41;23.70;95.40
3416;DHT22;1721;51.238;9.562;2022-07-30T09:11:06;24.00;94.40
3416;DHT22;1721;51.238;9.562;2022-07-30T09:13:34;24.00;94.10
3416;DHT22;1721;51.238;9.562;2022-07-30T09:16:01;24.00;93.50
3416;DHT22;1721;51.238;9.562;2022-07-30T09:18:35;23.80;93.10
3416;DHT22;1721;51.238;9.562;2022-07-30T09:21:18;24.00;93.70
3416;DHT22;1721;51.238;9.562;2022-07-30T09:24:03;24.10;93.70
3416;DHT22;1721;51.238;9.562;2022-07-30T09:26:29;24.30;93.60
3416;DHT22;1721;51.238;9.562;2022-07-30T09:29:17;24.60;92.70
3416;DHT22;1721;51.238;9.562;2022-07-30T09:34:36;24.80;92.30
3416;DHT22;1721;51.238;9.562;2022-07-30T09:37:03;24.50;92.60
3416;DHT22;1721;51.238;9.562;2022-07-30T09:39:34;24.50;92.80
3416;DHT22;1721;51.238;9.562;2022-07-30T09:42:02;24.90;92.20
3416;DHT22;1721;51.238;9.562;2022-07-30T09:44:28;24.90;91.60
3416;DHT22;1721;51.238;9.562;2022-07-30T09:46:55;25.00;91.90
3416;DHT22;1721;51.238;9.562;2022-07-30T09:49:26;24.80;91.90
3416;DHT22;1721;51.238;9.562;2022-07-30T09:51:53;24.30;92.50
3416;DHT22;1721;51.238;9.562;2022-07-30T09:54:19;24.30;93.00
3416;DHT22;1721;51.238;9.562;2022-07-30T09:56:45;24.50;92.70
3416;DHT22;1721;51.238;9.562;2022-07-30T09:59:27;24.70;92.30
3416;DHT22;1721;51.238;9.562;2022-07-30T10:01:54;24.70;91.40
3416;DHT22;1721;51.238;9.562;2022-07-30T10:04:27;24.50;93.00
3416;DHT22;1721;51.238;9.562;2022-07-30T10:06:54;24.50;92.70
3416;DHT22;1721;51.238;9.562;2022-07-30T10:09:31;24.70;92.20
3416;DHT22;1721;51.238;9.562;2022-07-30T10:11:59;24.70;93.10
3416;DHT22;1721;51.238;9.562;2022-07-30T10:14:35;24.50;92.30
3416;DHT22;1721;51.238;9.562;2022-07-30T10:17:01;24.40;92.30
3416;DHT22;1721;51.238;9.562;2022-07-30T10:19:27;24.90;92.80
3416;DHT22;1721;51.238;9.562;2022-07-30T10:21:53;25.10;92.00
3416;DHT22;1721;51.238;9.562;2022-07-30T10:24:22;25.40;92.40
3416;DHT22;1721;51.238;9.562;2022-07-30T10:26:52;25.00;89.70
3416;DHT22;1721;51.238;9.562;2022-07-30T10:29:19;25.10;90.90
3416;DHT22;1721;51.238;9.562;2022-07-30T10:31:45;25.40;89.40
3416;DHT22;1721;51.238;9.562;2022-07-30T10:34:12;25.70;90.30
3416;DHT22;1721;51.238;9.562;2022-07-30T10:36:48;26.00;90.30
3416;DHT22;1721;51.238;9.562;2022-07-30T10:39:17;26.10;89.30
3416;DHT22;1721;51.238;9.562;2022-07-30T10:45:19;25.60;90.80
3416;DHT22;1721;51.238;9.562;2022-07-30T10:47:48;25.50;89.30
3416;DHT22;1721;51.238;9.562;2022-07-30T10:50:16;25.30;88.80
3416;DHT22;1721;51.238;9.562;2022-07-30T10:52:50;25.20;88.90
3416;DHT22;1721;51.238;9.562;2022-07-30T10:55:27;25.30;88.80
3416;DHT22;1721;51.238;9.562;2022-07-30T10:58:10;25.40;89.70
3416;DHT22;1721;51.238;9.562;2022-07-30T11:03:18;25.10;88.10
3416;DHT22;1721;51.238;9.562;2022-07-30T11:05:48;24.90;89.30
3416;DHT22;1721;51.238;9.562;2022-07-30T11:08:39;25.10;87.80
3416;DHT22;1721;51.238;9.562;2022-07-30T11:13:59;25.40;87.90
3416;DHT22;1721;51.238;9.562;2022-07-30T11:19:25;25.80;85.20
3416;DHT22;1721;51.238;9.562;2022-07-30T11:22:26;25.70;86.40
3416;DHT22;1721;51.238;9.562;2022-07-30T11:24:53;25.70;85.20
3416;DHT22;1721;51.238;9.562;2022-07-30T11:27:42;26.00;82.70
3416;DHT22;1721;51.238;9.562;2022-07-30T11:32:44;26.20;81.40
3416;DHT22;1721;51.238;9.562;2022-07-30T11:35:27;26.20;83.70
3416;DHT22;1721;51.238;9.562;2022-07-30T11:38:12;26.10;86.00
3416;DHT22;1721;51.238;9.562;2022-07-30T11:43:19;25.80;83.30
3416;DHT22;1721;51.238;9.562;2022-07-30T11:45:47;26.10;83.70
3416;DHT22;1721;51.238;9.562;2022-07-30T11:48:15;26.30;81.00
3416;DHT22;1721;51.238;9.562;2022-07-30T11:50:41;26.40;81.10
3416;DHT22;1721;51.238;9.562;2022-07-30T11:53:16;26.40;81.20
3416;DHT22;1721;51.238;9.562;2022-07-30T11:55:44;26.60;81.10
3416;DHT22;1721;51.238;9.562;2022-07-30T12:00:56;25.80;83.30
3416;DHT22;1721;51.238;9.562;2022-07-30T12:03:24;26.20;83.30
3416;DHT22;1721;51.238;9.562;2022-07-30T12:05:51;26.50;80.80
3416;DHT22;1721;51.238;9.562;2022-07-30T12:08:17;26.60;80.90
3416;DHT22;1721;51.238;9.562;2022-07-30T12:10:44;26.80;82.00
3416;DHT22;1721;51.238;9.562;2022-07-30T12:13:18;27.00;80.50
3416;DHT22;1721;51.238;9.562;2022-07-30T12:15:46;27.20;77.70
3416;DHT22;1721;51.238;9.562;2022-07-30T12:18:13;27.30;78.10
3416;DHT22;1721;51.238;9.562;2022-07-30T12:20:55;27.20;79.70
3416;DHT22;1721;51.238;9.562;2022-07-30T12:23:21;27.40;77.70
3416;DHT22;1721;51.238;9.562;2022-07-30T12:25:47;27.40;78.00
3416;DHT22;1721;51.238;9.562;2022-07-30T12:28:23;27.50;77.90
3416;DHT22;1721;51.238;9.562;2022-07-30T12:30:50;27.60;76.00
3416;DHT22;1721;51.238;9.562;2022-07-30T12:33:16;28.00;72.40
3416;DHT22;1721;51.238;9.562;2022-07-30T12:38:07;27.50;75.80
3416;DHT22;1721;51.238;9.562;2022-07-30T12:40:33;27.40;75.10
3416;DHT22;1721;51.238;9.562;2022-07-30T12:42:58;26.90;79.40
3416;DHT22;1721;51.238;9.562;2022-07-30T12:45:26;26.80;81.20
3416;DHT22;1721;51.238;9.562;2022-07-30T12:47:52;27.00;78.00
3416;DHT22;1721;51.238;9.562;2022-07-30T12:50:17;26.80;77.30
3416;DHT22;1721;51.238;9.562;2022-07-30T12:52:48;26.90;74.90
3416;DHT22;1721;51.238;9.562;2022-07-30T12:55:15;27.10;74.00
3416;DHT22;1721;51.238;9.562;2022-07-30T13:00:17;27.10;76.60
3416;DHT22;1721;51.238;9.562;2022-07-30T13:02:43;27.10;77.10
3416;DHT22;1721;51.238;9.562;2022-07-30T13:05:08;27.00;76.90
3416;DHT22;1721;51.238;9.562;2022-07-30T13:07:34;26.70;77.00
3416;DHT22;1721;51.238;9.562;2022-07-30T13:10:11;26.50;77.30
3416;DHT22;1721;51.238;9.562;2022-07-30T13:12:37;26.40;78.90
3416;DHT22;1721;51.238;9.562;2022-07-30T13:15:04;26.40;80.70
3416;DHT22;1721;51.238;9.562;2022-07-30T13:17:30;26.30;78.10
3416;DHT22;1721;51.238;9.562;2022-07-30T13:19:55;26.20;80.70
3416;DHT22;1721;51.238;9.562;2022-07-30T13:22:21;26.10;79.40
3416;DHT22;1721;51.238;9.562;2022-07-30T13:24:47;26.00;79.00
3416;DHT22;1721;51.238;9.562;2022-07-30T13:27:12;25.90;78.80
3416;DHT22;1721;51.238;9.562;2022-07-30T13:29:38;25.60;78.00
3416;DHT22;1721;51.238;9.562;2022-07-30T13:32:03;25.50;79.20
3416;DHT22;1721;51.238;9.562;2022-07-30T13:34:29;25.60;82.20
3416;DHT22;1721;51.238;9.562;2022-07-30T13:36:54;25.70;82.80
3416;DHT22;1721;51.238;9.562;2022-07-30T13:39:20;25.80;83.70
3416;DHT22;1721;51.238;9.562;2022-07-30T13:41:45;25.90;84.30
3416;DHT22;1721;51.238;9.562;2022-07-30T13:44:11;26.10;83.90
3416;DHT22;1721;51.238;9.562;2022-07-30T13:46:37;26.30;81.80
3416;DHT22;1721;51.238;9.562;2022-07-30T13:49:02;26.50;81.80
3416;DHT22;1721;51.238;9.562;2022-07-30T13:51:29;26.60;82.20
3416;DHT22;1721;51.238;9.562;2022-07-30T13:53:54;26.40;82.50
3416;DHT22;1721;51.238;9.562;2022-07-30T13:56:20;26.20;80.70
3416;DHT22;1721;51.238;9.562;2022-07-30T13:58:46;26.10;80.60
3416;DHT22;1721;51.238;9.562;2022-07-30T14:01:13;26.20;77.50
3416;DHT22;1721;51.238;9.562;2022-07-30T14:03:38;26.10;76.90
3416;DHT22;1721;51.238;9.562;2022-07-30T14:06:04;26.10;78.70
3416;DHT22;1721;51.238;9.562;2022-07-30T14:08:30;26.20;77.90
3416;DHT22;1721;51.238;9.562;2022-07-30T14:10:56;26.10;78.10
3416;DHT22;1721;51.238;9.562;2022-07-30T14:13:22;26.10;77.50
3416;DHT22;1721;51.238;9.562;2022-07-30T14:15:48;26.10;77.40
3416;DHT22;1721;51.238;9.562;2022-07-30T14:18:14;26.10;77.70
3416;DHT22;1721;51.238;9.562;2022-07-30T14:20:39;26.10;76.70
3416;DHT22;1721;51.238;9.562;2022-07-30T14:23:05;26.20;78.30
3416;DHT22;1721;51.238;9.562;2022-07-30T14:25:31;26.20;80.60
3416;DHT22;1721;51.238;9.562;2022-07-30T14:27:56;25.90;79.20
3416;DHT22;1721;51.238;9.562;2022-07-30T14:30:22;26.00;80.10
3416;DHT22;1721;51.238;9.562;2022-07-30T14:32:49;26.00;77.70
3416;DHT22;1721;51.238;9.562;2022-07-30T14:35:15;26.00;77.70
3416;DHT22;1721;51.238;9.562;2022-07-30T14:37:40;26.00;77.70
3416;DHT22;1721;51.238;9.562;2022-07-30T14:40:10;26.00;80.10
3416;DHT22;1721;51.238;9.562;2022-07-30T14:42:37;25.90;79.50
3416;DHT22;1721;51.238;9.562;2022-07-30T14:45:05;26.00;79.40
3416;DHT22;1721;51.238;9.562;2022-07-30T14:47:31;26.00;80.10
3416;DHT22;1721;51.238;9.562;2022-07-30T14:49:56;26.00;78.90
3416;DHT22;1721;51.238;9.562;2022-07-30T14:52:22;26.00;79.70
3416;DHT22;1721;51.238;9.562;2022-07-30T14:54:47;26.20;81.30
3416;DHT22;1721;51.238;9.562;2022-07-30T14:57:13;26.30;81.30
3416;DHT22;1721;51.238;9.562;2022-07-30T14:59:39;26.60;75.50
3416;DHT22;1721;51.238;9.562;2022-07-30T15:02:05;26.50;78.00
3416;DHT22;1721;51.238;9.562;2022-07-30T15:04:30;26.50;77.10
3416;DHT22;1721;51.238;9.562;2022-07-30T15:06:56;26.40;78.60
3416;DHT22;1721;51.238;9.562;2022-07-30T15:09:22;26.50;77.90
3416;DHT22;1721;51.238;9.562;2022-07-30T15:11:47;26.60;76.80
3416;DHT22;1721;51.238;9.562;2022-07-30T15:14:14;26.70;75.20
3416;DHT22;1721;51.238;9.562;2022-07-30T15:16:39;26.80;74.60
3416;DHT22;1721;51.238;9.562;2022-07-30T15:19:05;26.80;74.70
3416;DHT22;1721;51.238;9.562;2022-07-30T15:21:30;26.50;76.90
3416;DHT22;1721;51.238;9.562;2022-07-30T15:23:56;26.70;76.10
3416;DHT22;1721;51.238;9.562;2022-07-30T15:26:21;26.80;73.30
3416;DHT22;1721;51.238;9.562;2022-07-30T15:28:47;26.70;74.40
3416;DHT22;1721;51.238;9.562;2022-07-30T15:31:13;26.70;74.10
3416;DHT22;1721;51.238;9.562;2022-07-30T15:33:38;25.90;77.70
3416;DHT22;1721;51.238;9.562;2022-07-30T15:36:09;25.30;79.80
3416;DHT22;1721;51.238;9.562;2022-07-30T15:38:36;25.30;80.50
3416;DHT22;1721;51.238;9.562;2022-07-30T15:41:01;25.30;80.30
3416;DHT22;1721;51.238;9.562;2022-07-30T15:43:27;25.80;80.60
3416;DHT22;1721;51.238;9.562;2022-07-30T15:45:53;25.90;79.40
3416;DHT22;1721;51.238;9.562;2022-07-30T15:48:18;25.90;80.70
3416;DHT22;1721;51.238;9.562;2022-07-30T15:50:44;26.30;77.00
3416;DHT22;1721;51.238;9.562;2022-07-30T15:53:09;26.60;76.00
3416;DHT22;1721;51.238;9.562;2022-07-30T15:55:36;26.60;75.90
3416;DHT22;1721;51.238;9.562;2022-07-30T15:58:02;26.00;77.10
3416;DHT22;1721;51.238;9.562;2022-07-30T16:00:28;25.60;78.60
3416;DHT22;1721;51.238;9.562;2022-07-30T16:02:54;25.70;80.80
3416;DHT22;1721;51.238;9.562;2022-07-30T16:05:21;26.00;78.50
3416;DHT22;1721;51.238;9.562;2022-07-30T16:07:47;26.50;75.90
3416;DHT22;1721;51.238;9.562;2022-07-30T16:10:12;26.70;74.90
3416;DHT22;1721;51.238;9.562;2022-07-30T16:12:38;26.90;73.70
3416;DHT22;1721;51.238;9.562;2022-07-30T16:15:05;27.10;72.80
3416;DHT22;1721;51.238;9.562;2022-07-30T16:17:30;26.80;74.30
3416;DHT22;1721;51.238;9.562;2022-07-30T16:19:56;26.90;73.50
3416;DHT22;1721;51.238;9.562;2022-07-30T16:22:21;26.20;77.60
3416;DHT22;1721;51.238;9.562;2022-07-30T16:24:47;26.20;76.20
3416;DHT22;1721;51.238;9.562;2022-07-30T16:27:12;26.30;74.60
3416;DHT22;1721;51.238;9.562;2022-07-30T16:29:38;26.30;74.70
3416;DHT22;1721;51.238;9.562;2022-07-30T16:32:04;26.10;75.40
3416;DHT22;1721;51.238;9.562;2022-07-30T16:34:30;25.50;77.90
3416;DHT22;1721;51.238;9.562;2022-07-30T16:36:57;25.40;75.90